KCSM

Clinton-Sherman Airport

Burns Flat, Oklahoma, USA
METAR KCSM 230753Z AUTO 16009KT 10SM CLR 21/18 A3000 RMK AO2 SLP136 T02110178
Observed Flight Rules
May-23 @ 07:53 UTC (58 minutes ago) Visual Flight Rules
Wind Visibility Clouds
160° at 9 knots 10 miles
  • Clear skies
Temperatures Readings
Current 21°C / 70°F
Dewpoint 18°C / 64°F
Humidity 83%
Altimeter 30" Hg
Pressure 1013.6 hPa
Elevation 588
METAR KCSM 230753Z AUTO 16009KT 10SM CLR 21/18 A3000 RMK AO2 SLP136 T02110178
Observed Flight Rules
May-23 @ 07:53 UTC
(58 minutes ago)
VFR
Wind Visibility
160° at 9 knots 10 miles
Clouds
  • Clear skies
Temperature Dewpoint
21°C / 70°F 18°C / 64°F
Humidity Altimeter Pressure
83% 30" Hg 1013.6 hPa